Time;durP1;ratioP1;P1;durP2;ratioP2;P2;SDS_P1;SDS_P2;PMS_P1;PMS_P2;Temp;Humidity;BMP_temperature;BMP_pressure;BME280_temperature;BME280_humidity;BME280_pressure;Samples;Min_cycle;Max_cycle;Signal;HPM_P1;HPM_P2
2021/04/25 00:00:46;;;;;;;4.38;3.00;;;;;;;22.98;41.55;95198.97;4970446;28;20031;-78
2021/04/25 00:03:11;;;;;;;4.32;2.92;;;;;;;22.84;41.57;95172.03;4971099;28;20034;-78
2021/04/25 00:05:37;;;;;;;3.75;2.83;;;;;;;22.88;41.35;95183.41;4970069;28;20054;-78
2021/04/25 00:08:03;;;;;;;4.45;3.22;;;;;;;22.93;41.17;95186.88;4986460;28;20525;-78
2021/04/25 00:10:28;;;;;;;3.35;2.80;;;;;;;22.93;41.27;95186.88;4971766;28;20065;-78
2021/04/25 00:12:54;;;;;;;3.88;2.72;;;;;;;22.91;41.48;95192.06;4971971;28;20027;-78
2021/04/25 00:15:21;;;;;;;4.40;2.70;;;;;;;22.91;41.46;95192.06;4971843;28;20027;-77
2021/04/25 00:17:47;;;;;;;3.90;2.85;;;;;;;22.89;41.56;95180.91;4986485;28;20056;-78
2021/04/25 00:20:13;;;;;;;4.38;2.80;;;;;;;22.91;41.39;95180.41;4971723;28;20494;-78
2021/04/25 00:22:39;;;;;;;3.83;2.80;;;;;;;22.84;41.54;95177.47;4971240;28;20113;-78
2021/04/25 00:25:05;;;;;;;3.83;2.63;;;;;;;22.88;41.54;95183.41;4970520;28;20165;-78
2021/04/25 00:27:31;;;;;;;4.43;3.05;;;;;;;22.88;41.34;95180.69;4971240;28;20023;-78
2021/04/25 00:29:56;;;;;;;3.90;2.97;;;;;;;22.88;41.26;95179.44;4971355;28;20422;-78
2021/04/25 00:32:22;;;;;;;3.80;3.10;;;;;;;22.72;41.56;95159.69;4970985;28;20562;-78
2021/04/25 00:34:47;;;;;;;4.65;3.20;;;;;;;22.88;41.38;95177.97;4970514;28;20031;-78
2021/04/25 00:37:12;;;;;;;3.78;2.70;;;;;;;22.83;41.54;95186.91;4971056;28;20562;-78
2021/04/25 00:39:38;;;;;;;3.53;2.65;;;;;;;22.77;41.42;95172.56;4970131;28;20034;-78
2021/04/25 00:42:04;;;;;;;3.95;3.05;;;;;;;22.86;41.26;95183.16;4969971;28;20034;-78
2021/04/25 00:44:29;;;;;;;4.20;2.85;;;;;;;22.84;41.54;95188.34;4969891;28;20566;-78
2021/04/25 00:46:55;;;;;;;4.22;3.10;;;;;;;22.78;41.43;95184.91;4971323;28;20046;-78
2021/04/25 00:49:20;;;;;;;4.63;3.22;;;;;;;22.81;41.38;95181.19;4970619;28;20038;-78
2021/04/25 00:51:46;;;;;;;4.55;3.00;;;;;;;22.70;41.39;95173.06;4970884;28;20511;-78
2021/04/25 00:54:12;;;;;;;4.35;3.05;;;;;;;22.72;41.59;95176.78;4971208;28;20141;-78
2021/04/25 00:56:37;;;;;;;4.28;3.15;;;;;;;22.73;41.45;95180.25;4970305;28;20037;-78
2021/04/25 00:59:03;;;;;;;4.85;3.40;;;;;;;22.78;41.53;95182.19;4971932;28;20380;-78
2021/04/25 01:01:28;;;;;;;4.30;2.97;;;;;;;22.74;41.55;95176.28;4970149;28;20058;-78
2021/04/25 01:03:54;;;;;;;3.97;2.85;;;;;;;22.70;41.69;95173.06;4970573;28;20037;-77
2021/04/25 01:06:19;;;;;;;3.45;2.83;;;;;;;22.79;41.53;95178.25;4969638;28;20510;-78
2021/04/25 01:08:45;;;;;;;3.92;2.72;;;;;;;22.76;41.67;95181.97;4969800;28;20410;-78
2021/04/25 01:11:10;;;;;;;4.93;3.15;;;;;;;22.77;41.41;95188.91;4970949;28;20023;-78
2021/04/25 01:13:36;;;;;;;4.43;3.20;;;;;;;22.78;41.34;95184.91;4970868;28;20458;-77
2021/04/25 01:16:01;;;;;;;4.57;3.30;;;;;;;22.70;41.74;95175.81;4970726;28;20066;-78
2021/04/25 01:18:26;;;;;;;4.45;2.97;;;;;;;22.74;41.44;95179.75;4953441;28;20157;-78
2021/04/25 01:20:57;;;;;;;3.63;2.97;;;;;;;22.71;41.56;95180.00;4970419;28;20022;-77
2021/04/25 01:23:23;;;;;;;5.22;3.40;;;;;;;22.74;41.33;95184.47;4968968;28;20030;-78
2021/04/25 01:25:48;;;;;;;4.53;3.22;;;;;;;22.75;41.76;95183.97;4968986;28;20035;-78
2021/04/25 01:28:14;;;;;;;4.60;2.92;;;;;;;22.75;41.32;95181.22;4970055;28;20034;-79
2021/04/25 01:30:39;;;;;;;4.03;3.00;;;;;;;22.69;41.25;95177.03;4968586;28;20034;-78
2021/04/25 01:33:05;;;;;;;4.18;3.10;;;;;;;22.73;41.41;95182.97;4968865;28;20506;-78
2021/04/25 01:35:30;;;;;;;3.83;2.95;;;;;;;22.76;41.26;95181.97;4985147;28;20030;-78
2021/04/25 01:37:57;;;;;;;3.83;3.15;;;;;;;22.74;41.36;95184.47;4984862;28;20097;-77
2021/04/25 01:40:25;;;;;;;5.45;3.47;;;;;;;22.71;41.29;95182.72;4970123;28;20027;-78
2021/04/25 01:42:51;;;;;;;4.97;3.22;;;;;;;22.70;41.54;95178.53;4969386;28;20031;-78
2021/04/25 01:45:17;;;;;;;4.28;3.22;;;;;;;22.65;41.44;95177.31;4969947;28;20037;-78
2021/04/25 01:47:50;;;;;;;4.60;3.53;;;;;;;22.67;41.46;95180.25;4969299;28;20038;-78
2021/04/25 01:50:16;;;;;;;4.72;3.30;;;;;;;22.63;41.63;95165.41;4970202;28;20066;-78
2021/04/25 01:52:41;;;;;;;4.35;3.25;;;;;;;22.65;41.36;95177.31;4969612;28;20026;-78
2021/04/25 01:55:08;;;;;;;4.47;3.47;;;;;;;22.70;41.20;95178.53;4970332;28;20089;-78
2021/04/25 01:57:33;;;;;;;4.75;3.55;;;;;;;22.62;41.19;95169.41;4969842;28;20438;-78
2021/04/25 02:00:00;;;;;;;4.45;3.20;;;;;;;22.66;41.39;95173.34;4968495;28;20038;-78
2021/04/25 02:02:25;;;;;;;4.10;3.50;;;;;;;22.59;41.59;95151.34;4968448;28;20027;-78
2021/04/25 02:04:51;;;;;;;4.15;3.30;;;;;;;22.69;41.61;95171.59;4968258;28;20038;-77
2021/04/25 02:07:16;;;;;;;4.70;3.38;;;;;;;22.66;41.20;95167.91;4969599;28;20031;-77
2021/04/25 02:09:41;;;;;;;4.93;3.40;;;;;;;22.65;41.34;95171.13;4968230;28;20023;-78
2021/04/25 02:12:07;;;;;;;4.35;3.22;;;;;;;22.63;41.53;95162.69;4969544;28;20022;-77
2021/04/25 02:14:33;;;;;;;4.00;2.88;;;;;;;22.60;41.64;95160.97;4969450;28;20439;-78
2021/04/25 02:16:58;;;;;;;5.10;2.90;;;;;;;22.56;42.05;95152.34;4969300;28;20327;-78
2021/04/25 02:19:24;;;;;;;4.07;3.30;;;;;;;22.62;41.55;95155.78;4968306;28;20097;-77
2021/04/25 02:21:49;;;;;;;5.03;3.40;;;;;;;22.47;41.20;95133.56;4969407;28;20030;-77
2021/04/25 02:24:14;;;;;;;4.78;3.20;;;;;;;22.64;41.24;95156.03;4968147;28;20453;-78
2021/04/25 02:26:40;;;;;;;4.43;3.47;;;;;;;22.63;41.50;95151.81;4969155;28;20137;-78
2021/04/25 02:29:06;;;;;;;4.53;3.50;;;;;;;22.62;41.37;95156.53;4968016;28;20074;-78
2021/04/25 02:31:31;;;;;;;4.60;3.30;;;;;;;22.61;41.54;95151.59;4969175;28;20038;-78
2021/04/25 02:33:57;;;;;;;4.63;3.42;;;;;;;22.61;41.25;95154.31;4969352;28;20509;-78
2021/04/25 02:36:22;;;;;;;4.30;3.20;;;;;;;22.59;41.38;95146.63;4968942;28;20077;-77
2021/04/25 02:38:47;;;;;;;5.55;3.60;;;;;;;22.58;41.29;95136.97;4969154;28;20490;-77
2021/04/25 02:41:13;;;;;;;3.90;3.17;;;;;;;22.59;41.42;95135.03;4969245;28;20472;-78
2021/04/25 02:43:39;;;;;;;4.43;3.35;;;;;;;22.55;41.43;95134.53;4969143;28;20045;-78
2021/04/25 02:46:04;;;;;;;4.65;3.55;;;;;;;22.57;41.44;95142.94;4969118;28;20403;-77
2021/04/25 02:48:30;;;;;;;4.40;3.20;;;;;;;22.57;41.28;95132.03;4968715;28;20438;-78
2021/04/25 02:50:55;;;;;;;4.55;3.10;;;;;;;22.46;41.40;95132.09;4968985;28;20027;-78
2021/04/25 02:53:20;;;;;;;4.30;3.35;;;;;;;22.55;41.34;95139.97;4967591;28;20034;-77
2021/04/25 02:55:46;;;;;;;5.32;3.35;;;;;;;22.54;41.33;95138.47;4967881;28;20054;-78
2021/04/25 02:58:11;;;;;;;5.22;3.28;;;;;;;22.54;41.24;95138.47;4968677;28;20026;-78
2021/04/25 03:00:37;;;;;;;4.55;3.13;;;;;;;22.51;41.43;95129.34;4967388;28;20037;-77
2021/04/25 03:03:03;;;;;;;4.50;3.47;;;;;;;22.49;41.52;95126.38;4968052;28;20166;-78
2021/04/25 03:05:28;;;;;;;5.15;3.47;;;;;;;22.53;41.26;95131.56;4968703;28;20666;-77
2021/04/25 03:07:55;;;;;;;5.40;3.80;;;;;;;22.54;41.29;95135.75;4968860;28;20027;-78
2021/04/25 03:10:21;;;;;;;5.38;3.80;;;;;;;22.52;41.41;95136.25;4968478;28;20535;-76
2021/04/25 03:12:46;;;;;;;5.22;3.42;;;;;;;22.40;41.58;95117.75;4960252;28;20042;-78
2021/04/25 03:15:12;;;;;;;5.43;3.83;;;;;;;22.51;41.51;95139.47;4964326;28;20110;-78
2021/04/25 03:17:37;;;;;;;4.40;3.35;;;;;;;22.49;41.58;95136.53;4949414;28;20574;-78
2021/04/25 03:20:04;;;;;;;4.60;3.33;;;;;;;22.50;41.17;95138.03;4957411;28;20030;-75
2021/04/25 03:22:30;;;;;;;5.57;3.40;;;;;;;22.52;41.27;95140.97;4969726;28;20109;-78
2021/04/25 03:24:55;;;;;;;4.35;3.10;;;;;;;22.62;40.92;95144.91;4966441;28;20813;-76
2021/04/25 03:27:21;;;;;;;4.90;3.13;;;;;;;22.68;41.16;95154.53;4966753;28;20033;-77
2021/04/25 03:29:46;;;;;;;4.43;3.25;;;;;;;22.62;41.07;95134.03;4967636;28;20034;-81
2021/04/25 03:32:12;;;;;;;4.25;3.20;;;;;;;22.78;40.91;95144.06;4950221;28;20023;-77
2021/04/25 03:34:37;;;;;;;4.63;3.50;;;;;;;22.84;40.83;95156.44;4967713;28;20053;-78
2021/04/25 03:37:03;;;;;;;5.25;3.08;;;;;;;22.80;40.81;95133.44;4966740;28;20414;-77
2021/04/25 03:39:29;;;;;;;4.47;3.20;;;;;;;22.92;40.84;95149.94;4967372;28;20030;-76
2021/04/25 03:41:54;;;;;;;4.50;3.22;;;;;;;22.95;40.73;95146.25;4966617;28;20027;-75
2021/04/25 03:44:19;;;;;;;4.80;3.35;;;;;;;22.98;40.96;95145.25;4967013;28;20042;-77
2021/04/25 03:46:45;;;;;;;4.53;3.38;;;;;;;22.95;40.83;95140.81;4966656;28;20812;-77
2021/04/25 03:49:10;;;;;;;4.28;3.22;;;;;;;22.97;40.89;95143.78;4966233;28;20425;-77
2021/04/25 03:51:36;;;;;;;3.80;2.85;;;;;;;23.05;40.70;95150.16;4967024;28;20081;-76
2021/04/25 03:54:02;;;;;;;4.22;3.20;;;;;;;23.09;40.23;95150.66;4967210;28;20487;-75
2021/04/25 03:56:27;;;;;;;5.28;3.10;;;;;;;23.10;40.14;95157.56;4966360;28;20065;-77
2021/04/25 03:58:53;;;;;;;5.15;3.47;;;;;;;23.15;40.36;95159.53;4964547;28;20506;-74
2021/04/25 04:01:18;;;;;;;4.55;3.38;;;;;;;23.15;40.01;95159.53;4968146;28;20121;-75
2021/04/25 04:03:43;;;;;;;5.95;4.00;;;;;;;23.14;39.69;95157.31;4968582;28;20034;-71
2021/04/25 04:06:09;;;;;;;5.80;3.50;;;;;;;23.14;40.01;95163.50;4969465;28;20478;-72
2021/04/25 04:08:34;;;;;;;5.72;3.33;;;;;;;23.18;40.33;95152.31;4971528;28;20082;-71
2021/04/25 04:11:00;;;;;;;5.13;3.50;;;;;;;23.20;40.33;95161.47;4966414;28;20027;-73
2021/04/25 04:13:25;;;;;;;4.50;3.47;;;;;;;23.24;40.37;95161.19;4951813;28;20031;-70
2021/04/25 04:15:51;;;;;;;4.97;3.70;;;;;;;23.24;40.21;95170.09;4971452;28;20042;-71
2021/04/25 04:18:16;;;;;;;5.18;3.45;;;;;;;23.26;40.32;95170.38;4970672;28;20038;-71
2021/04/25 04:20:41;;;;;;;4.25;3.28;;;;;;;23.28;40.15;95176.03;4971995;28;20027;-73
2021/04/25 04:23:07;;;;;;;5.47;3.28;;;;;;;23.32;40.05;95168.34;4972104;28;20031;-73
2021/04/25 04:25:32;;;;;;;4.55;3.47;;;;;;;23.23;39.92;95155.03;4971163;28;20035;-75
2021/04/25 04:27:58;;;;;;;5.93;3.72;;;;;;;23.39;40.23;95178.69;4970718;28;20379;-74
2021/04/25 04:30:23;;;;;;;5.53;3.53;;;;;;;23.38;40.28;95174.50;4969968;28;20034;-72
2021/04/25 04:32:49;;;;;;;5.13;3.35;;;;;;;23.34;40.02;95165.84;4969908;28;20426;-72
2021/04/25 04:35:14;;;;;;;4.57;3.92;;;;;;;23.40;40.29;95174.72;4970032;28;20038;-76
2021/04/25 04:37:40;;;;;;;4.72;3.42;;;;;;;23.45;39.95;95182.13;4972998;28;20525;-76
2021/04/25 04:40:05;;;;;;;5.22;3.40;;;;;;;23.46;40.37;95178.16;4970867;28;20426;-76
2021/04/25 04:42:31;;;;;;;4.93;3.20;;;;;;;23.52;39.89;95176.13;4969137;28;20414;-81
2021/04/25 04:44:56;;;;;;;5.32;3.58;;;;;;;23.50;39.81;95184.81;4970376;28;20031;-74
2021/04/25 04:47:22;;;;;;;4.78;3.30;;;;;;;23.55;39.91;95186.03;4968494;28;20037;-73
2021/04/25 04:49:47;;;;;;;5.55;3.35;;;;;;;23.56;39.85;95187.53;4969750;28;20034;-72
2021/04/25 04:52:13;;;;;;;4.53;3.20;;;;;;;23.58;40.12;95176.84;4969243;28;20035;-72
2021/04/25 04:54:38;;;;;;;4.85;2.90;;;;;;;23.60;40.16;95182.50;4969327;28;20062;-77
2021/04/25 04:57:04;;;;;;;4.03;3.00;;;;;;;23.66;39.77;95186.72;4968633;28;20030;-77
2021/04/25 04:59:29;;;;;;;4.25;3.22;;;;;;;23.71;39.97;95191.41;4967489;28;20031;-78
2021/04/25 05:01:55;;;;;;;4.70;3.13;;;;;;;23.76;39.88;95189.88;4969267;28;20308;-77
2021/04/25 05:04:20;;;;;;;4.35;2.85;;;;;;;23.86;39.66;95195.25;4968498;28;20027;-77
2021/04/25 05:06:46;;;;;;;4.32;3.25;;;;;;;23.96;39.29;95199.13;4968329;28;20395;-76
2021/04/25 05:09:11;;;;;;;4.85;3.00;;;;;;;24.07;39.23;95196.31;4968542;28;20064;-80
2021/04/25 05:11:37;;;;;;;4.13;3.22;;;;;;;24.18;39.08;95198.19;4967640;28;20466;-76
2021/04/25 05:14:02;;;;;;;4.72;3.40;;;;;;;24.30;38.77;95192.13;4968142;28;20498;-80
2021/04/25 05:16:28;;;;;;;3.40;2.83;;;;;;;24.40;38.68;95193.31;4970437;28;20494;-82
2021/04/25 05:18:54;;;;;;;5.30;3.40;;;;;;;24.51;38.32;95204.09;4930579;28;20051;-80
2021/04/25 05:21:19;;;;;;;4.50;3.13;;;;;;;24.64;38.02;95202.22;4968271;28;20030;-75
2021/04/25 05:23:45;;;;;;;4.88;3.10;;;;;;;24.76;37.83;95203.59;4965082;28;20041;-77
2021/04/25 05:26:10;;;;;;;4.68;3.00;;;;;;;24.87;37.89;95198.75;4968907;28;20022;-79
2021/04/25 05:28:36;;;;;;;4.78;3.20;;;;;;;24.99;37.34;95205.59;4968729;28;20481;-76
2021/04/25 05:31:01;;;;;;;5.00;3.28;;;;;;;25.03;37.34;95192.34;4967377;28;20462;-77
2021/04/25 05:33:28;;;;;;;4.28;3.03;;;;;;;25.20;36.97;95203.84;4967555;28;20023;-74
2021/04/25 05:35:54;;;;;;;5.18;3.58;;;;;;;25.24;36.12;95204.25;4968666;28;20027;-73
2021/04/25 05:38:19;;;;;;;4.68;3.47;;;;;;;25.40;36.91;95200.59;4967170;28;20078;-72
2021/04/25 05:40:45;;;;;;;4.32;3.10;;;;;;;25.47;36.65;95194.50;4967127;28;20030;-73
2021/04/25 05:43:11;;;;;;;4.53;3.10;;;;;;;25.56;36.58;95203.09;4966137;28;20030;-74
2021/04/25 05:45:36;;;;;;;4.32;3.00;;;;;;;25.62;36.29;95205.72;4967697;28;20521;-73
2021/04/25 05:48:01;;;;;;;4.38;2.95;;;;;;;25.70;36.29;95201.19;4968875;28;20093;-80
2021/04/25 05:50:28;;;;;;;4.65;3.40;;;;;;;25.80;36.21;95190.06;4965607;28;20495;-77
2021/04/25 05:52:54;;;;;;;4.78;3.58;;;;;;;25.86;35.52;95187.97;4965648;28;20088;-74
2021/04/25 05:55:19;;;;;;;3.88;3.00;;;;;;;25.92;35.46;95188.63;4969012;28;20515;-79
2021/04/25 05:57:45;;;;;;;4.20;3.28;;;;;;;26.06;35.43;95195.59;4953746;28;20461;-81
2021/04/25 06:00:13;;;;;;;3.75;2.83;;;;;;;26.12;35.62;95196.25;4985575;28;20074;-80
2021/04/25 06:02:38;;;;;;;4.65;3.33;;;;;;;26.23;35.20;95187.84;4968087;28;20077;-79
2021/04/25 06:05:04;;;;;;;4.25;3.08;;;;;;;26.23;35.01;95198.06;4968518;28;20015;-77
2021/04/25 06:07:30;;;;;;;3.85;3.08;;;;;;;26.20;34.91;95186.16;4967843;28;20030;-78
2021/04/25 06:09:55;;;;;;;6.00;3.10;;;;;;;26.28;35.46;95187.78;4966722;28;20022;-78
2021/04/25 06:12:21;;;;;;;6.32;3.90;;;;;;;26.02;32.75;95188.97;4966829;28;20042;-74
2021/04/25 06:14:46;;;;;;;4.10;3.17;;;;;;;26.23;34.30;95176.91;4967833;28;20422;-76
2021/04/25 06:17:12;;;;;;;4.20;3.03;;;;;;;26.30;34.75;95187.28;4961519;28;20038;-72
2021/04/25 06:19:37;;;;;;;6.25;3.00;;;;;;;26.37;34.58;95189.41;4967367;28;20027;-76
2021/04/25 06:22:06;;;;;;;6.60;4.10;;;;;;;26.33;32.67;95175.28;4967984;28;20027;-75
2021/04/25 06:24:31;;;;;;;5.32;3.15;;;;;;;26.38;34.20;95179.91;4967793;28;20031;-73
2021/04/25 06:26:57;;;;;;;6.88;3.20;;;;;;;26.47;34.51;95168.53;4967098;28;20411;-77
2021/04/25 06:29:23;;;;;;;4.03;2.80;;;;;;;26.52;34.58;95173.19;4967044;28;20052;-80
2021/04/25 06:31:48;;;;;;;4.60;3.33;;;;;;;26.52;34.44;95170.44;4963865;28;20026;-80
2021/04/25 06:34:13;;;;;;;5.47;2.95;;;;;;;26.61;34.19;95172.78;4966523;28;20480;-76
2021/04/25 06:36:42;;;;;;;5.05;2.95;;;;;;;26.71;34.43;95171.06;4966672;28;20038;-76
2021/04/25 06:39:08;;;;;;;4.13;3.00;;;;;;;26.61;34.38;95161.81;4964691;28;20037;-77
2021/04/25 06:41:33;;;;;;;5.38;3.20;;;;;;;26.67;33.95;95162.44;4965549;28;20031;-73
2021/04/25 06:43:59;;;;;;;4.43;2.72;;;;;;;26.72;34.10;95167.06;4963496;28;20038;-74
2021/04/25 06:46:25;;;;;;;4.03;2.83;;;;;;;26.79;34.53;95161.69;4966759;28;20030;-76
2021/04/25 06:48:50;;;;;;;4.18;3.00;;;;;;;26.79;34.02;95167.91;4966904;28;20031;-79
2021/04/25 06:51:16;;;;;;;4.43;2.92;;;;;;;26.87;34.40;95154.31;4964282;28;20530;-74
2021/04/25 06:53:41;;;;;;;4.47;3.00;;;;;;;26.82;34.27;95144.94;4962261;28;20482;-76
2021/04/25 06:56:07;;;;;;;3.92;2.90;;;;;;;26.83;34.55;95142.91;4967738;28;20053;-73
2021/04/25 06:58:32;;;;;;;3.40;2.72;;;;;;;26.81;34.32;95143.44;4967088;28;20030;-74
2021/04/25 07:00:58;;;;;;;3.45;2.65;;;;;;;26.85;34.47;95143.16;4967109;28;20244;-73
2021/04/25 07:03:23;;;;;;;3.97;2.83;;;;;;;26.95;34.67;95136.72;4966767;28;20027;-72
2021/04/25 07:05:48;;;;;;;4.20;2.50;;;;;;;26.96;34.30;95138.19;4967588;28;20018;-72
2021/04/25 07:08:14;;;;;;;3.95;2.95;;;;;;;26.93;34.20;95133.75;4966475;28;20034;-73
2021/04/25 07:10:39;;;;;;;4.18;2.80;;;;;;;26.95;34.04;95142.22;4967162;28;20029;-73
2021/04/25 07:13:05;;;;;;;4.75;2.88;;;;;;;27.02;34.37;95136.06;4967205;28;20298;-76
2021/04/25 07:15:30;;;;;;;3.78;2.88;;;;;;;27.04;34.11;95133.56;4967089;28;20059;-76
2021/04/25 07:17:56;;;;;;;4.70;2.88;;;;;;;27.08;34.39;95128.47;4963044;28;20062;-76
2021/04/25 07:20:22;;;;;;;4.35;2.75;;;;;;;27.11;34.36;95126.66;4965551;28;20117;-79
2021/04/25 07:22:47;;;;;;;5.35;3.10;;;;;;;27.11;34.22;95123.94;4965182;28;20126;-73
2021/04/25 07:25:13;;;;;;;3.92;2.78;;;;;;;27.10;34.33;95120.47;4966064;28;20038;-84
2021/04/25 07:27:39;;;;;;;4.32;2.58;;;;;;;27.13;34.04;95124.88;4948960;28;20586;-78
2021/04/25 07:30:06;;;;;;;3.85;3.40;;;;;;;26.93;33.15;95105.63;4949865;28;20871;-90
2021/04/25 07:32:31;;;;;;;5.13;2.85;;;;;;;27.13;34.02;95124.88;4948260;28;20506;-76
2021/04/25 07:34:57;;;;;;;4.70;2.97;;;;;;;27.12;34.13;95111.72;4968118;28;20031;-77
2021/04/25 07:37:22;;;;;;;4.25;2.55;;;;;;;27.16;33.13;95118.34;4967830;28;20026;-77
2021/04/25 07:39:48;;;;;;;4.30;2.90;;;;;;;27.06;34.12;95109.06;4966686;28;20510;-74
2021/04/25 07:42:14;;;;;;;4.93;2.78;;;;;;;27.17;33.83;95119.78;4948725;28;20561;-73
2021/04/25 07:44:41;;;;;;;3.30;2.35;;;;;;;27.20;33.80;95121.47;4969701;28;20506;-71
2021/04/25 07:47:07;;;;;;;3.70;2.60;;;;;;;27.14;34.20;95109.88;4970091;28;20022;-76
2021/04/25 07:49:33;;;;;;;3.90;2.97;;;;;;;27.24;33.77;95107.44;4969488;28;20064;-76
2021/04/25 07:51:58;;;;;;;3.65;2.40;;;;;;;27.21;34.29;95098.28;4970530;28;20922;-76
2021/04/25 07:54:26;;;;;;;3.95;2.90;;;;;;;27.29;33.94;95118.28;4969711;28;20054;-78
2021/04/25 07:56:51;;;;;;;4.00;2.75;;;;;;;27.32;33.90;95106.25;4957990;28;20085;-78
2021/04/25 07:59:16;;;;;;;3.47;2.38;;;;;;;27.45;33.85;95100.72;4970074;28;20023;-78
2021/04/25 08:01:42;;;;;;;6.50;2.55;;;;;;;27.39;33.92;95111.09;4971103;28;20045;-76
2021/04/25 08:04:07;;;;;;;4.85;2.75;;;;;;;27.36;33.95;95109.41;4970620;28;20576;-79
2021/04/25 08:06:33;;;;;;;4.80;2.92;;;;;;;27.30;34.21;95101.28;4974189;28;20077;-78
2021/04/25 08:08:58;;;;;;;7.78;4.07;;;;;;;27.36;34.41;95112.16;4977030;28;20477;-79
2021/04/25 08:11:24;;;;;;;6.93;2.75;;;;;;;27.42;34.09;95107.28;4972877;28;20050;-78
2021/04/25 08:13:49;;;;;;;5.70;2.70;;;;;;;27.44;34.09;95104.72;4970266;28;20517;-78
2021/04/25 08:16:15;;;;;;;8.15;2.65;;;;;;;27.44;34.40;95101.97;4972860;28;20503;-85
2021/04/25 08:18:40;;;;;;;7.35;3.00;;;;;;;27.43;33.35;95097.78;4969247;28;20494;-80
2021/04/25 08:21:09;;;;;;;4.53;2.90;;;;;;;27.49;34.21;95090.88;4972323;28;20030;-79
2021/04/25 08:23:34;;;;;;;6.78;2.70;;;;;;;27.33;34.25;95074.81;4968434;28;20023;-79
2021/04/25 08:26:00;;;;;;;6.25;2.60;;;;;;;27.47;34.69;95076.97;4952669;28;20022;-89
2021/04/25 08:28:25;;;;;;;6.25;3.03;;;;;;;27.40;34.78;95071.41;4952338;28;20026;-80
2021/04/25 08:30:54;;;;;;;5.82;2.92;;;;;;;27.52;34.57;95078.88;4969263;28;20025;-75
2021/04/25 08:33:19;;;;;;;6.65;3.10;;;;;;;27.48;34.74;95072.22;4966166;28;20069;-79
2021/04/25 08:35:45;;;;;;;5.38;2.85;;;;;;;27.45;35.14;95078.78;4954226;28;20027;-76
2021/04/25 08:38:10;;;;;;;6.47;2.88;;;;;;;27.49;35.31;95073.69;4966338;28;20026;-76
2021/04/25 08:40:36;;;;;;;7.32;2.92;;;;;;;27.53;35.22;95068.63;4957455;28;20026;-73
2021/04/25 08:43:01;;;;;;;25.90;3.58;;;;;;;27.18;43.99;95049.97;4960742;28;20051;-79
2021/04/25 08:45:27;;;;;;;8.98;3.42;;;;;;;27.36;36.00;95081.97;4958829;28;20011;-74
2021/04/25 08:47:59;;;;;;;5.93;2.63;;;;;;;27.33;35.43;95066.59;4970571;28;20097;-77
2021/04/25 08:50:30;;;;;;;6.43;2.90;;;;;;;27.36;35.34;95076.50;4970934;28;20090;-74
2021/04/25 08:52:56;;;;;;;4.75;2.45;;;;;;;27.35;35.40;95077.75;4971446;28;20034;-76
2021/04/25 08:55:22;;;;;;;6.53;3.00;;;;;;;27.31;35.38;95063.66;4972044;28;20066;-78
2021/04/25 08:57:48;;;;;;;8.52;3.33;;;;;;;27.22;31.19;95072.34;4969297;28;20030;-76
2021/04/25 09:00:13;;;;;;;9.32;3.10;;;;;;;27.26;33.65;95061.75;4971504;28;20065;-78
2021/04/25 09:02:39;;;;;;;6.22;2.85;;;;;;;27.36;34.88;95060.03;4969736;28;20391;-73
2021/04/25 09:05:05;;;;;;;7.03;2.70;;;;;;;27.32;35.25;95054.88;4967424;28;20027;-74
2021/04/25 09:07:30;;;;;;;6.20;3.22;;;;;;;27.41;35.38;95056.41;4968992;28;20030;-74
2021/04/25 09:09:59;;;;;;;6.47;2.92;;;;;;;27.42;35.41;95047.66;4968122;28;20034;-73
2021/04/25 09:12:40;;;;;;;6.10;2.88;;;;;;;27.49;34.88;95036.03;4951389;28;20025;-71
2021/04/25 09:15:11;;;;;;;4.78;2.53;;;;;;;27.53;35.15;95039.16;4968538;28;20034;-71
2021/04/25 09:17:50;;;;;;;4.32;2.50;;;;;;;27.50;34.91;95037.53;4967986;28;20051;-71
2021/04/25 09:20:16;;;;;;;4.25;2.28;;;;;;;27.50;35.12;95023.06;4966664;28;20022;-74
2021/04/25 09:22:44;;;;;;;4.75;2.60;;;;;;;27.46;35.08;95031.59;4965733;28;20034;-74
2021/04/25 09:25:11;;;;;;;6.72;2.47;;;;;;;27.48;34.85;95028.31;4969562;28;20030;-74
2021/04/25 09:27:36;;;;;;;5.85;2.60;;;;;;;27.43;34.65;95016.22;4967798;28;20062;-73
2021/04/25 09:30:03;;;;;;;3.92;2.60;;;;;;;27.38;34.68;95036.28;4982900;28;20034;-73
2021/04/25 09:32:30;;;;;;;7.75;2.83;;;;;;;27.31;34.89;95011.53;4969078;28;20101;-73
2021/04/25 09:35:18;;;;;;;7.03;2.70;;;;;;;27.41;34.66;95024.25;4967266;28;20031;-73
2021/04/25 09:37:45;;;;;;;7.80;3.00;;;;;;;27.40;34.53;95016.56;4966584;28;20033;-73
2021/04/25 09:40:15;;;;;;;4.03;2.40;;;;;;;27.43;34.30;95020.97;4947039;28;20475;-73
2021/04/25 09:43:00;;;;;;;7.28;2.75;;;;;;;27.39;34.07;94999.34;4967641;28;20428;-73
2021/04/25 09:45:45;;;;;;;6.82;2.40;;;;;;;27.37;34.08;95001.19;4961219;28;20057;-76
2021/04/25 09:48:30;;;;;;;4.88;2.60;;;;;;;27.32;33.76;94999.28;4968169;28;20479;-76
2021/04/25 09:51:20;;;;;;;4.55;2.42;;;;;;;27.32;33.56;95000.03;4968886;28;20229;-76
2021/04/25 09:53:52;;;;;;;4.57;2.67;;;;;;;27.34;33.67;94985.78;4965995;28;20562;-71
2021/04/25 09:56:18;;;;;;;4.32;2.53;;;;;;;27.09;33.20;94943.50;4967850;28;20054;-77
2021/04/25 09:58:56;;;;;;;6.10;2.60;;;;;;;27.39;33.28;94987.66;4967900;28;20077;-75
2021/04/25 10:01:43;;;;;;;3.47;2.30;;;;;;;27.30;33.07;94968.94;4969587;28;20035;-75
2021/04/25 10:04:35;;;;;;;4.28;2.30;;;;;;;27.29;32.97;94975.66;4969373;28;20026;-75
2021/04/25 10:07:04;;;;;;;4.65;2.22;;;;;;;27.46;32.63;94967.78;4958154;28;20113;-75
2021/04/25 10:09:29;;;;;;;4.77;2.40;;;;;;;27.47;32.97;94982.94;4977343;28;20512;-75
2021/04/25 10:11:56;;;;;;;3.53;2.10;;;;;;;27.24;32.73;94916.22;4968258;28;20022;-75
2021/04/25 10:14:22;;;;;;;3.95;2.00;;;;;;;27.33;32.68;94929.47;4953056;28;20089;-75
2021/04/25 10:16:48;;;;;;;4.22;2.50;;;;;;;27.37;32.72;94935.34;4952378;28;20037;-75
2021/04/25 10:19:14;;;;;;;4.57;2.20;;;;;;;27.50;32.70;94938.00;4968536;28;20026;-75
2021/04/25 10:21:40;;;;;;;3.65;2.13;;;;;;;27.35;32.47;94926.91;4970090;28;20031;-76
2021/04/25 10:24:07;;;;;;;4.60;2.20;;;;;;;27.51;32.74;94934.00;4959002;28;20430;-77
2021/04/25 10:26:40;;;;;;;4.55;2.42;;;;;;;27.52;32.46;94935.47;4969745;28;20023;-76
2021/04/25 10:29:08;;;;;;;7.60;2.40;;;;;;;27.37;32.35;94914.13;4968363;28;20074;-76
2021/04/25 10:31:35;;;;;;;4.32;2.03;;;;;;;27.60;32.34;94926.00;4947689;28;20419;-76
2021/04/25 10:34:07;;;;;;;3.85;2.20;;;;;;;27.56;32.16;94919.41;4983325;28;20027;-78
2021/04/25 10:36:45;;;;;;;4.60;2.03;;;;;;;27.58;32.11;94922.31;4964959;28;20139;-75
2021/04/25 10:39:36;;;;;;;7.68;2.30;;;;;;;27.55;32.21;94928.91;4968743;28;20022;-76
2021/04/25 10:44:58;;;;;;;5.43;2.15;;;;;;;27.55;32.51;94931.63;4968941;28;20030;-76
2021/04/25 10:47:24;;;;;;;5.88;2.10;;;;;;;27.55;32.43;94918.66;4968074;28;20035;-82
2021/04/25 10:49:49;;;;;;;5.25;2.00;;;;;;;27.51;31.67;94923.03;4961118;28;20110;-74
2021/04/25 10:52:25;;;;;;;4.65;2.08;;;;;;;27.45;31.85;94914.19;4961932;28;20174;-77
2021/04/25 10:55:12;;;;;;;4.32;2.38;;;;;;;27.43;31.66;94916.75;4969252;28;20132;-76
2021/04/25 10:57:53;;;;;;;6.63;2.22;;;;;;;27.45;31.91;94914.91;4968816;28;20213;-75
2021/04/25 11:03:02;;;;;;;5.15;2.08;;;;;;;27.43;30.83;94905.75;4971924;28;20608;-75
2021/04/25 11:05:40;;;;;;;4.75;2.20;;;;;;;27.45;31.04;94914.19;4969078;28;20226;-76
2021/04/25 11:08:18;;;;;;;4.80;2.30;;;;;;;27.55;31.12;94912.44;4968389;28;20039;-75
2021/04/25 11:10:51;;;;;;;4.93;2.20;;;;;;;27.50;31.28;94910.59;4964677;28;20565;-73
2021/04/25 11:13:35;;;;;;;4.93;2.00;;;;;;;27.53;31.05;94909.50;4968268;28;20414;-75
2021/04/25 11:16:07;;;;;;;3.72;2.15;;;;;;;27.54;30.98;94900.00;4969551;28;20602;-74
2021/04/25 11:18:43;;;;;;;3.88;1.88;;;;;;;27.43;31.03;94900.28;4971966;28;20038;-77
2021/04/25 11:21:27;;;;;;;2.88;1.95;;;;;;;27.51;30.47;94890.13;4973084;28;20042;-76
2021/04/25 11:24:03;;;;;;;3.92;2.10;;;;;;;27.39;30.40;94872.44;4971382;28;20158;-74
2021/04/25 11:26:34;;;;;;;4.22;2.13;;;;;;;27.53;30.42;94893.78;4969313;28;20529;-72
2021/04/25 11:29:10;;;;;;;4.05;2.10;;;;;;;27.19;29.90;94843.06;4976934;28;20037;-73
2021/04/25 11:31:52;;;;;;;5.35;2.08;;;;;;;27.53;29.94;94904.03;4974571;28;20031;-72
2021/04/25 11:37:02;;;;;;;2.65;1.90;;;;;;;27.62;29.68;94884.31;4979600;28;20050;-72
2021/04/25 11:39:42;;;;;;;5.82;2.20;;;;;;;27.55;29.85;94874.03;4974011;28;20117;-72
2021/04/25 11:42:08;;;;;;;4.13;2.03;;;;;;;27.60;29.60;94875.91;4971992;28;20038;-73